Time;durP1;ratioP1;P1;durP2;ratioP2;P2;SDS_P1;SDS_P2;PMS_P1;PMS_P2;Temp;Humidity;BMP_temperature;BMP_pressure;BME280_temperature;BME280_humidity;BME280_pressure;Samples;Min_cycle;Max_cycle;Signal;HPM_P1;HPM_P2
2022/12/25 00:01:31;;;;;;;3.40;3.10;;;;;;;11.64;70.24;99643.84;5069028;28;20273;-57
2022/12/25 00:03:58;;;;;;;4.97;3.67;;;;;;;11.73;69.90;99642.28;5063091;28;20274;-57
2022/12/25 00:06:25;;;;;;;4.80;3.10;;;;;;;11.74;69.34;99656.00;5065205;28;20203;-57
2022/12/25 00:08:52;;;;;;;4.72;3.40;;;;;;;11.74;69.07;99658.59;5074587;28;20506;-58
2022/12/25 00:11:19;;;;;;;3.93;3.07;;;;;;;11.76;68.15;99662.03;5074255;28;20183;-57
2022/12/25 00:13:47;;;;;;;3.27;3.03;;;;;;;11.79;68.08;99667.22;5073767;28;20220;-58
2022/12/25 00:16:18;;;;;;;3.10;2.77;;;;;;;11.88;67.01;99661.34;5073739;28;20187;-57
2022/12/25 00:18:45;;;;;;;4.10;3.10;;;;;;;11.87;66.89;99659.63;5073806;28;20643;-57
2022/12/25 00:21:12;;;;;;;3.67;3.17;;;;;;;11.82;66.96;99675.00;5073818;28;20671;-56
2022/12/25 00:23:39;;;;;;;3.53;3.20;;;;;;;11.76;67.94;99675.78;5073723;28;20727;-56
2022/12/25 00:26:08;;;;;;;4.27;3.40;;;;;;;11.72;68.38;99673.16;5072944;28;20604;-56
2022/12/25 00:28:35;;;;;;;3.30;3.00;;;;;;;11.77;67.21;99669.81;5056193;28;20192;-57
2022/12/25 00:31:05;;;;;;;4.07;2.90;;;;;;;11.88;66.61;99674.22;5055804;28;20560;-57
2022/12/25 00:33:35;;;;;;;4.20;3.10;;;;;;;11.86;66.94;99675.91;5072063;28;20195;-57
2022/12/25 00:36:01;;;;;;;3.40;3.10;;;;;;;11.84;66.45;99670.72;5060457;28;20187;-57
2022/12/25 00:38:28;;;;;;;3.10;2.50;;;;;;;11.89;66.20;99669.13;5062561;28;20274;-57
2022/12/25 00:40:55;;;;;;;3.20;2.80;;;;;;;11.84;66.92;99668.16;5073517;28;20190;-57
2022/12/25 00:43:22;;;;;;;4.37;2.77;;;;;;;11.82;66.53;99680.16;5067094;28;20192;-57
2022/12/25 00:45:56;;;;;;;3.43;2.77;;;;;;;11.76;66.75;99677.47;5058794;28;20261;-57
2022/12/25 00:48:23;;;;;;;3.33;3.00;;;;;;;11.78;67.53;99675.81;5068633;28;20194;-57
2022/12/25 00:50:55;;;;;;;3.50;3.20;;;;;;;11.71;67.34;99669.69;5073282;28;20195;-57
2022/12/25 00:53:22;;;;;;;4.20;3.17;;;;;;;11.75;67.52;99686.06;5073310;28;20183;-57
2022/12/25 00:55:53;;;;;;;3.50;3.20;;;;;;;11.59;68.27;99689.22;5073277;28;20184;-56
2022/12/25 00:58:20;;;;;;;3.50;3.20;;;;;;;11.59;68.48;99684.91;5072083;28;20657;-56
2022/12/25 01:00:48;;;;;;;3.33;3.03;;;;;;;11.59;68.45;99682.34;5073074;28;20191;-57
2022/12/25 01:03:16;;;;;;;3.93;3.27;;;;;;;11.56;68.15;99673.75;5073034;28;20191;-58
2022/12/25 01:05:44;;;;;;;3.93;3.53;;;;;;;11.53;68.68;99677.13;5073145;28;20271;-58
2022/12/25 01:08:12;;;;;;;4.60;3.23;;;;;;;11.53;69.24;99673.69;5073076;28;20203;-57
2022/12/25 01:10:38;;;;;;;4.60;3.27;;;;;;;11.47;68.63;99671.88;5073002;28;20562;-57
2022/12/25 01:13:04;;;;;;;3.60;3.30;;;;;;;11.52;68.55;99687.38;5072457;28;20196;-57
2022/12/25 01:15:31;;;;;;;4.17;3.40;;;;;;;11.46;68.34;99688.16;5073239;28;20191;-57
2022/12/25 01:17:58;;;;;;;3.50;3.00;;;;;;;11.49;67.70;99682.19;5072611;28;20222;-56
2022/12/25 01:20:25;;;;;;;3.50;3.20;;;;;;;11.44;68.41;99696.69;5072873;28;20188;-57
2022/12/25 01:22:51;;;;;;;5.27;3.70;;;;;;;11.42;68.47;99691.53;5072599;28;20666;-57
2022/12/25 01:25:20;;;;;;;3.57;3.20;;;;;;;11.43;68.50;99697.53;5072526;28;20658;-56
2022/12/25 01:27:47;;;;;;;3.53;3.13;;;;;;;11.42;68.42;99701.84;5072682;28;20191;-56
2022/12/25 01:30:13;;;;;;;3.77;3.37;;;;;;;11.29;68.99;99673.31;5072718;28;20215;-57
2022/12/25 01:32:40;;;;;;;3.57;3.10;;;;;;;11.20;69.09;99672.31;5072514;28;20191;-56
2022/12/25 01:35:08;;;;;;;4.20;3.07;;;;;;;11.26;69.60;99703.25;5072478;28;20187;-56
2022/12/25 01:37:34;;;;;;;4.40;3.30;;;;;;;11.18;70.12;99707.41;5071497;28;20215;-56
2022/12/25 01:40:01;;;;;;;3.90;3.50;;;;;;;11.17;69.90;99700.56;5052664;28;20196;-56
2022/12/25 01:42:29;;;;;;;3.90;3.60;;;;;;;11.12;70.47;99709.88;5051597;28;20459;-56
2022/12/25 01:45:34;;;;;;;4.50;3.80;;;;;;;11.04;71.04;99719.16;5052250;28;20188;-57
2022/12/25 01:48:05;;;;;;;5.00;4.30;;;;;;;10.96;71.88;99707.88;5051917;28;20493;-56
2022/12/25 01:50:32;;;;;;;5.17;3.87;;;;;;;10.94;71.95;99707.00;5052524;28;20196;-56
2022/12/25 01:53:00;;;;;;;4.50;4.10;;;;;;;10.87;72.22;99694.88;5052057;28;20192;-56
2022/12/25 01:55:27;;;;;;;4.57;4.17;;;;;;;10.85;72.84;99700.84;5052111;28;20219;-56
2022/12/25 01:57:56;;;;;;;4.13;3.40;;;;;;;10.78;72.93;99704.97;5052208;28;20629;-56
2022/12/25 02:00:23;;;;;;;4.00;3.60;;;;;;;10.72;73.36;99706.56;5052257;28;20188;-56
2022/12/25 02:02:51;;;;;;;4.87;3.80;;;;;;;10.59;73.81;99700.34;5052352;28;20203;-56
2022/12/25 02:05:23;;;;;;;5.73;3.90;;;;;;;10.23;74.03;99638.84;5052144;28;20195;-57
2022/12/25 02:07:51;;;;;;;4.47;3.97;;;;;;;10.66;74.06;99702.16;5051369;28;20507;-57
2022/12/25 02:10:18;;;;;;;4.00;3.60;;;;;;;10.82;73.14;99708.47;5052488;28;20246;-57
2022/12/25 02:12:46;;;;;;;3.70;3.40;;;;;;;10.82;72.87;99711.06;5052139;28;20188;-57
2022/12/25 02:15:19;;;;;;;4.03;3.63;;;;;;;10.82;72.95;99706.78;5052034;28;20235;-57
2022/12/25 02:17:54;;;;;;;4.23;3.53;;;;;;;10.87;72.60;99702.59;5051969;28;20749;-56
2022/12/25 02:20:43;;;;;;;4.32;3.92;;;;;;;10.90;72.66;99709.50;5052021;28;20446;-56
2022/12/25 02:23:33;;;;;;;5.33;3.70;;;;;;;10.98;71.50;99708.78;5070795;28;20199;-57
2022/12/25 02:26:15;;;;;;;4.10;3.70;;;;;;;10.94;71.63;99714.69;5072167;28;20388;-57
2022/12/25 02:28:49;;;;;;;4.50;4.07;;;;;;;10.96;71.87;99707.03;5072760;28;20202;-57
2022/12/25 02:31:22;;;;;;;5.10;3.77;;;;;;;10.91;72.01;99709.50;5072394;28;20270;-57
2022/12/25 02:34:04;;;;;;;4.17;3.53;;;;;;;10.95;72.18;99707.88;5071747;28;20188;-57
2022/12/25 02:36:37;;;;;;;4.90;4.20;;;;;;;10.97;72.18;99719.91;5072057;28;20187;-57
2022/12/25 02:41:59;;;;;;;4.63;4.00;;;;;;;11.02;71.58;99710.56;5060498;28;20573;-57
2022/12/25 03:06:43;;;;;;;4.80;4.40;;;;;;;11.00;72.24;99735.38;5071707;28;20566;-56
2022/12/25 03:12:04;;;;;;;4.50;4.10;;;;;;;10.89;73.20;99742.03;5071721;28;20265;-56
2022/12/25 03:17:17;;;;;;;6.47;4.60;;;;;;;10.87;72.92;99754.00;5071759;28;20227;-56
2022/12/25 03:28:03;;;;;;;7.63;6.20;;;;;;;10.44;75.45;99767.66;5075186;28;20240;-57
2022/12/25 03:33:36;;;;;;;8.27;6.60;;;;;;;10.29;77.00;99772.50;5075065;28;20664;-57
2022/12/25 03:36:09;;;;;;;10.40;8.93;;;;;;;10.26;77.73;99780.13;5073577;28;20892;-57
2022/12/25 04:37:12;;;;;;;6.43;5.73;;;;;;;9.82;79.26;99868.91;5073715;28;20190;-57
2022/12/25 04:39:40;;;;;;;6.70;5.53;;;;;;;9.85;79.29;99865.53;5073723;28;20198;-57
2022/12/25 04:42:07;;;;;;;6.13;5.50;;;;;;;9.84;79.35;99869.81;5073585;28;20225;-57
2022/12/25 04:44:34;;;;;;;7.33;5.53;;;;;;;9.81;79.22;99867.16;5073326;28;20696;-57
2022/12/25 04:47:01;;;;;;;8.43;5.87;;;;;;;9.87;79.20;99876.72;5073884;28;20199;-57
2022/12/25 04:49:28;;;;;;;7.13;6.10;;;;;;;9.88;79.05;99875.88;5073538;28;20434;-57
2022/12/25 04:51:55;;;;;;;10.13;6.13;;;;;;;9.92;78.81;99880.25;5073491;28;20194;-57
2022/12/25 04:54:21;;;;;;;6.63;5.77;;;;;;;9.89;78.87;99882.75;5073417;28;20188;-57
2022/12/25 04:56:49;;;;;;;7.20;5.90;;;;;;;9.90;78.74;99885.38;5073342;28;20183;-57
2022/12/25 04:59:16;;;;;;;7.07;6.33;;;;;;;9.88;78.97;99892.16;5073238;28;20215;-57
2022/12/25 05:01:43;;;;;;;7.40;6.07;;;;;;;9.87;78.85;99895.53;5073610;28;20192;-57
2022/12/25 05:04:10;;;;;;;7.20;5.83;;;;;;;9.87;78.51;99902.38;5073066;28;20532;-58
2022/12/25 05:06:37;;;;;;;6.83;5.37;;;;;;;9.91;78.42;99906.78;5073065;28;20195;-57
2022/12/25 05:09:04;;;;;;;6.00;5.43;;;;;;;9.83;78.40;99901.41;5073115;28;20191;-57
2022/12/25 05:11:31;;;;;;;7.07;6.23;;;;;;;9.84;78.94;99908.28;5072982;28;20183;-58
2022/12/25 05:13:59;;;;;;;6.97;6.30;;;;;;;9.79;78.83;99901.31;5072770;28;20223;-57
2022/12/25 05:16:26;;;;;;;8.67;6.67;;;;;;;9.49;79.38;99874.03;5072987;28;20191;-58
2022/12/25 05:18:53;;;;;;;7.40;6.70;;;;;;;9.65;79.59;99907.78;5072737;28;20215;-57
2022/12/25 05:21:19;;;;;;;8.03;7.03;;;;;;;9.69;79.36;99912.19;5072902;28;20574;-58
2022/12/25 05:23:50;;;;;;;7.47;6.50;;;;;;;9.35;79.09;99869.38;5072748;28;20195;-58
2022/12/25 05:26:18;;;;;;;7.13;6.13;;;;;;;9.58;79.97;99928.97;5072819;28;20195;-57
2022/12/25 05:28:45;;;;;;;6.63;5.93;;;;;;;9.55;80.35;99934.91;5073113;28;20190;-57
2022/12/25 05:31:13;;;;;;;6.47;5.83;;;;;;;9.59;79.99;99920.44;5072823;28;20188;-56
2022/12/25 05:33:40;;;;;;;8.57;6.77;;;;;;;9.61;80.36;99935.06;5072351;28;20191;-57
2022/12/25 05:36:09;;;;;;;6.80;6.20;;;;;;;9.53;80.33;99921.16;5072641;28;20245;-57
2022/12/25 05:38:36;;;;;;;7.00;6.30;;;;;;;9.58;80.40;99937.53;5072386;28;20230;-56
2022/12/25 05:41:03;;;;;;;7.97;6.57;;;;;;;9.61;80.48;99929.06;5072303;28;20249;-58
2022/12/25 05:43:30;;;;;;;8.60;7.37;;;;;;;9.58;80.21;99931.53;5072306;28;20188;-58
2022/12/25 05:45:57;;;;;;;9.57;7.97;;;;;;;9.58;80.51;99949.50;5071595;28;20441;-58
2022/12/25 05:48:25;;;;;;;9.37;7.17;;;;;;;9.58;80.36;99957.19;5072337;28;20658;-58
2022/12/25 05:50:52;;;;;;;8.00;7.20;;;;;;;9.60;80.12;99955.53;5072554;28;20260;-58
2022/12/25 05:53:19;;;;;;;9.03;6.43;;;;;;;9.54;80.46;99963.94;5072260;28;20650;-58
2022/12/25 05:55:46;;;;;;;7.87;7.07;;;;;;;9.56;80.51;99962.25;5072426;28;20188;-57
2022/12/25 05:58:13;;;;;;;8.37;7.40;;;;;;;9.54;80.93;99973.31;5072098;28;20211;-57
2022/12/25 06:00:40;;;;;;;7.97;7.17;;;;;;;9.40;80.44;99954.97;5072180;28;20183;-57
2022/12/25 06:03:07;;;;;;;7.83;7.07;;;;;;;9.52;80.82;99995.50;5072341;28;20240;-57
2022/12/25 06:05:38;;;;;;;9.05;7.97;;;;;;;9.50;81.46;100003.16;5070622;28;20797;-58
2022/12/25 06:08:05;;;;;;;7.97;7.17;;;;;;;9.56;81.09;100011.00;5072588;28;20218;-57
2022/12/25 06:10:32;;;;;;;11.00;8.47;;;;;;;9.57;80.78;100011.88;5071946;28;20772;-57
2022/12/25 06:12:59;;;;;;;9.83;7.40;;;;;;;9.50;80.98;100001.44;5072260;28;20195;-56
2022/12/25 06:15:26;;;;;;;9.43;7.73;;;;;;;9.49;81.33;100006.53;5070524;28;20697;-57
2022/12/25 06:17:53;;;;;;;8.60;7.70;;;;;;;9.46;81.47;100012.44;5070844;28;20219;-57
2022/12/25 06:20:19;;;;;;;8.77;7.87;;;;;;;9.41;81.77;100008.00;5071914;28;20206;-57
2022/12/25 06:22:48;;;;;;;9.27;7.23;;;;;;;9.39;81.96;100014.81;5072121;28;20191;-57
2022/12/25 06:25:15;;;;;;;8.97;8.07;;;;;;;9.36;82.50;100018.16;5071955;28;20603;-57
2022/12/25 06:27:42;;;;;;;11.37;8.30;;;;;;;9.46;82.29;100020.16;5071919;28;20196;-57
2022/12/25 06:30:10;;;;;;;9.43;7.90;;;;;;;9.58;82.04;100019.63;5071699;28;20199;-57
2022/12/25 06:32:37;;;;;;;9.40;8.40;;;;;;;9.64;81.17;100026.63;5071720;28;20191;-57
2022/12/25 06:35:04;;;;;;;10.27;7.77;;;;;;;9.64;80.02;100034.34;5071773;28;20627;-57
2022/12/25 06:37:31;;;;;;;9.83;7.90;;;;;;;9.64;79.97;100034.34;5071951;28;20195;-57
2022/12/25 06:40:00;;;;;;;10.73;8.47;;;;;;;9.70;79.86;100039.59;5071719;28;20234;-57
2022/12/25 06:42:26;;;;;;;9.57;8.40;;;;;;;9.70;79.80;100034.47;5071662;28;20646;-58
2022/12/25 06:44:53;;;;;;;9.77;8.33;;;;;;;9.73;79.27;100044.84;5071868;28;20253;-58
2022/12/25 06:47:20;;;;;;;10.80;8.10;;;;;;;9.66;78.51;100020.72;5071730;28;20187;-57
2022/12/25 06:49:47;;;;;;;8.57;7.30;;;;;;;9.87;78.39;100046.97;5071328;28;20195;-57
2022/12/25 06:52:14;;;;;;;8.20;7.40;;;;;;;10.17;76.57;100046.97;5071442;28;20187;-57
2022/12/25 06:54:40;;;;;;;9.63;7.40;;;;;;;10.93;73.64;100036.03;5071464;28;20711;-58
2022/12/25 06:57:08;;;;;;;9.70;7.50;;;;;;;11.23;70.75;100041.88;5073483;28;20650;-57
2022/12/25 06:59:35;;;;;;;8.60;6.43;;;;;;;11.17;69.25;100040.03;5075342;28;20215;-57
2022/12/25 07:02:02;;;;;;;8.70;6.00;;;;;;;10.95;70.07;100042.06;5075393;28;20257;-57
2022/12/25 07:04:34;;;;;;;6.67;6.00;;;;;;;10.77;70.59;100044.22;5075584;28;20191;-58
2022/12/25 07:07:01;;;;;;;7.53;5.60;;;;;;;10.51;71.66;100021.31;5075651;28;20278;-59
2022/12/25 07:09:28;;;;;;;6.63;5.80;;;;;;;10.52;72.19;100047.88;5074820;28;20199;-57
2022/12/25 07:12:03;;;;;;;8.30;5.40;;;;;;;10.56;72.72;100041.97;5075121;28;20223;-57
2022/12/25 07:14:31;;;;;;;5.47;4.97;;;;;;;10.61;72.32;100042.97;5074573;28;20609;-57
2022/12/25 07:16:58;;;;;;;6.00;5.10;;;;;;;10.62;72.36;100048.16;5075049;28;20188;-57
2022/12/25 07:19:25;;;;;;;6.03;5.40;;;;;;;10.65;72.09;100052.50;5074820;28;20782;-57
2022/12/25 07:21:51;;;;;;;7.43;6.10;;;;;;;10.68;71.53;100050.00;5074756;28;20222;-57
2022/12/25 07:24:20;;;;;;;7.77;4.93;;;;;;;10.77;71.68;100064.78;5075037;28;20188;-57
2022/12/25 07:26:53;;;;;;;6.90;5.20;;;;;;;10.84;71.37;100062.38;5073960;28;20199;-57
2022/12/25 07:29:20;;;;;;;6.50;5.07;;;;;;;10.81;71.52;100062.31;5074955;28;20192;-57
2022/12/25 07:31:48;;;;;;;6.17;5.50;;;;;;;10.86;71.19;100073.56;5074835;28;20727;-57
2022/12/25 07:34:16;;;;;;;6.00;5.00;;;;;;;10.93;71.39;100075.44;5075028;28;20191;-57
2022/12/25 07:36:43;;;;;;;5.60;5.00;;;;;;;11.05;70.45;100074.88;5074664;28;20195;-57
2022/12/25 07:39:10;;;;;;;8.30;6.10;;;;;;;10.95;70.54;100055.81;5064743;28;20476;-57
2022/12/25 07:41:37;;;;;;;6.07;5.17;;;;;;;11.16;70.03;100084.59;5074545;28;20616;-57
2022/12/25 07:44:04;;;;;;;7.17;5.60;;;;;;;11.20;69.86;100081.25;5056979;28;20196;-58
2022/12/25 07:46:31;;;;;;;6.18;5.57;;;;;;;11.31;69.47;100090.91;5062336;28;20856;-58
2022/12/25 07:49:00;;;;;;;5.63;4.93;;;;;;;11.41;68.60;100095.41;5064321;28;20203;-58
2022/12/25 07:51:28;;;;;;;6.17;4.97;;;;;;;11.46;68.86;100094.69;5071300;28;20279;-57
2022/12/25 07:53:55;;;;;;;5.83;5.23;;;;;;;11.50;68.05;100096.50;5066110;28;20183;-58
2022/12/25 07:56:22;;;;;;;6.53;5.73;;;;;;;11.52;68.46;100086.22;5073950;28;20578;-57
2022/12/25 07:58:49;;;;;;;8.80;6.30;;;;;;;11.45;68.65;100079.22;5073359;28;20441;-57
2022/12/25 08:01:19;;;;;;;7.83;5.30;;;;;;;11.65;67.89;100088.22;5073978;28;20263;-58
2022/12/25 08:03:49;;;;;;;7.22;5.80;;;;;;;11.62;67.76;100089.03;5066552;28;20526;-57
2022/12/25 08:06:19;;;;;;;9.27;5.97;;;;;;;11.71;67.77;100096.13;5054047;28;20206;-58
2022/12/25 08:08:46;;;;;;;6.60;5.50;;;;;;;11.72;67.73;100095.28;5053830;28;20258;-57
2022/12/25 08:11:12;;;;;;;7.40;5.70;;;;;;;11.76;68.39;100105.69;5072184;28;20192;-56
2022/12/25 08:13:39;;;;;;;8.17;6.50;;;;;;;11.79;67.75;100102.31;5074465;28;20227;-56
2022/12/25 08:16:08;;;;;;;8.27;5.70;;;;;;;11.81;67.80;100106.63;5074267;28;20215;-57
2022/12/25 08:18:36;;;;;;;7.90;7.10;;;;;;;11.87;68.46;100105.91;5072803;28;20449;-57
2022/12/25 08:21:04;;;;;;;8.80;6.97;;;;;;;11.95;68.15;100106.09;5073960;28;20278;-56
2022/12/25 08:23:34;;;;;;;6.13;5.53;;;;;;;12.01;68.19;100109.63;5073730;28;20203;-57
2022/12/25 08:26:01;;;;;;;7.10;5.57;;;;;;;12.03;68.56;100113.09;5073582;28;20657;-57
2022/12/25 08:28:29;;;;;;;7.80;5.70;;;;;;;12.09;67.64;100120.06;5073546;28;20187;-56
2022/12/25 08:30:56;;;;;;;6.93;5.40;;;;;;;12.10;67.56;100122.69;5067629;28;20192;-57
2022/12/25 08:33:23;;;;;;;7.82;6.35;;;;;;;12.12;66.55;100131.31;5052750;28;20439;-58
2022/12/25 08:35:50;;;;;;;7.40;5.63;;;;;;;12.28;66.56;100123.06;5054095;28;20185;-58
2022/12/25 08:38:17;;;;;;;5.93;5.17;;;;;;;12.29;65.58;100129.09;5072615;28;20187;-58
2022/12/25 08:40:45;;;;;;;7.17;4.93;;;;;;;12.30;65.84;100131.72;5073085;28;20187;-58
2022/12/25 08:43:12;;;;;;;6.40;5.03;;;;;;;12.36;65.36;100130.97;5072654;28;20287;-58
2022/12/25 08:45:38;;;;;;;8.90;5.10;;;;;;;12.40;64.51;100137.88;5069294;28;20253;-58
2022/12/25 08:48:06;;;;;;;5.67;5.10;;;;;;;12.38;63.96;100116.38;5073154;28;20199;-58
2022/12/25 08:50:33;;;;;;;7.03;4.73;;;;;;;12.44;63.36;100116.50;5058357;28;20205;-61
2022/12/25 08:53:00;;;;;;;5.93;4.77;;;;;;;12.56;63.01;100115.84;5056668;28;20192;-58
2022/12/25 08:55:27;;;;;;;6.50;5.23;;;;;;;12.58;62.94;100119.34;5053810;28;20200;-58
2022/12/25 08:57:55;;;;;;;6.43;4.60;;;;;;;12.63;61.94;100122.84;5053023;28;20197;-58
2022/12/25 09:00:22;;;;;;;7.67;4.70;;;;;;;12.27;61.33;100064.66;5056422;28;20303;-58
2022/12/25 09:02:49;;;;;;;5.60;4.47;;;;;;;12.69;61.36;100128.97;5067296;28;20196;-58
2022/12/25 09:05:21;;;;;;;7.77;4.47;;;;;;;12.75;60.91;100123.06;5072459;28;20200;-58
2022/12/25 09:07:47;;;;;;;5.10;4.00;;;;;;;12.68;60.81;100100.59;5072954;28;20192;-58
2022/12/25 09:10:14;;;;;;;5.63;3.87;;;;;;;12.85;59.96;100117.22;5064103;28;20211;-58
2022/12/25 09:12:41;;;;;;;5.70;4.50;;;;;;;12.95;59.81;100124.28;5072881;28;20247;-58
2022/12/25 09:15:10;;;;;;;5.17;4.67;;;;;;;13.02;60.06;100124.38;5073064;28;20254;-58
2022/12/25 09:17:37;;;;;;;5.50;4.40;;;;;;;12.73;59.99;100071.47;5072534;28;20191;-58
2022/12/25 09:20:06;;;;;;;5.03;4.27;;;;;;;13.08;59.63;100128.81;5071593;28;20273;-58
2022/12/25 09:22:33;;;;;;;4.87;4.30;;;;;;;13.15;59.73;100120.34;5072311;28;20219;-58
2022/12/25 09:25:00;;;;;;;10.90;4.33;;;;;;;13.18;58.99;100133.31;5071931;28;20257;-58
2022/12/25 09:27:27;;;;;;;5.17;4.10;;;;;;;13.21;58.62;100120.41;5072238;28;20188;-58
2022/12/25 09:29:54;;;;;;;4.77;4.27;;;;;;;13.27;58.23;100114.50;5072255;28;20206;-58
2022/12/25 09:32:22;;;;;;;4.33;3.57;;;;;;;13.38;57.20;100124.13;5072410;28;20241;-58
2022/12/25 09:34:50;;;;;;;4.60;3.03;;;;;;;13.41;55.20;100123.31;5072344;28;20265;-58
2022/12/25 09:37:17;;;;;;;6.67;4.10;;;;;;;13.52;55.26;100114.88;5055601;28;20192;-58
2022/12/25 09:39:44;;;;;;;6.60;3.57;;;;;;;13.53;54.74;100106.31;5051745;28;20226;-57
2022/12/25 09:42:16;;;;;;;4.60;3.83;;;;;;;13.35;54.41;100079.38;5051930;28;20185;-57
2022/12/25 09:44:46;;;;;;;4.67;3.60;;;;;;;13.65;54.34;100109.91;5052202;28;20609;-57
2022/12/25 09:47:16;;;;;;;5.07;3.92;;;;;;;13.77;53.42;100110.91;5051968;28;20443;-57
2022/12/25 09:49:49;;;;;;;6.23;3.87;;;;;;;13.75;54.10;100114.34;5052847;28;20206;-57
2022/12/25 09:52:22;;;;;;;3.60;3.30;;;;;;;13.79;53.13;100109.22;5052645;28;20193;-58
2022/12/25 09:54:56;;;;;;;4.97;3.60;;;;;;;13.83;52.93;100117.88;5052239;28;20188;-57
2022/12/25 09:57:24;;;;;;;5.87;3.57;;;;;;;13.85;52.90;100113.59;5052040;28;20219;-58
2022/12/25 09:59:54;;;;;;;4.97;3.27;;;;;;;13.90;52.80;100109.38;5051729;28;20220;-57
2022/12/25 10:02:59;;;;;;;5.07;3.73;;;;;;;13.93;53.28;100114.56;5051641;28;20737;-57
2022/12/25 10:06:02;;;;;;;3.60;3.10;;;;;;;13.85;52.66;100108.44;5053620;28;20211;-57
2022/12/25 10:08:46;;;;;;;6.77;4.20;;;;;;;13.90;53.19;100101.63;5049735;28;20256;-57
2022/12/25 10:11:25;;;;;;;4.23;3.20;;;;;;;13.98;52.96;100105.19;5072420;28;20279;-57
2022/12/25 10:14:06;;;;;;;6.13;3.90;;;;;;;14.03;52.89;100104.38;5071924;28;20247;-57
2022/12/25 10:16:43;;;;;;;4.50;3.60;;;;;;;14.08;52.56;100101.84;5067136;28;20195;-57
2022/12/25 10:19:20;;;;;;;5.30;4.40;;;;;;;14.16;52.61;100102.78;5065995;28;20212;-58
2022/12/25 10:21:52;;;;;;;8.10;3.40;;;;;;;14.23;52.15;100109.75;5071331;28;20201;-58
2022/12/25 10:24:28;;;;;;;4.67;3.37;;;;;;;14.26;51.75;100112.38;5069429;28;20608;-58
2022/12/25 10:26:56;;;;;;;3.80;3.40;;;;;;;14.30;52.10;100103.81;5067871;28;20460;-58
2022/12/25 10:29:23;;;;;;;3.87;3.23;;;;;;;14.32;52.24;100101.28;5070902;28;20188;-58
2022/12/25 10:31:53;;;;;;;4.70;3.33;;;;;;;14.43;51.44;100120.34;5077875;28;20237;-59
2022/12/25 10:34:20;;;;;;;4.63;3.07;;;;;;;14.55;50.25;100121.38;5076145;28;20920;-58
2022/12/25 10:36:48;;;;;;;9.60;3.47;;;;;;;14.58;50.07;100105.88;5076514;28;20440;-57
2022/12/25 10:39:17;;;;;;;5.10;3.63;;;;;;;14.60;49.29;100105.88;5075485;28;20238;-56
2022/12/25 10:42:10;;;;;;;3.67;2.70;;;;;;;14.64;49.04;100118.00;5072160;28;20198;-57
2022/12/25 10:44:37;;;;;;;3.60;2.50;;;;;;;14.63;48.29;100104.22;5055214;28;20201;-57
2022/12/25 10:47:05;;;;;;;3.03;2.80;;;;;;;14.67;48.61;100095.59;5071479;28;20200;-58
2022/12/25 10:49:35;;;;;;;3.20;2.53;;;;;;;14.63;48.96;100103.34;5075320;28;20200;-58
2022/12/25 10:52:03;;;;;;;2.83;2.47;;;;;;;14.70;48.75;100105.97;5075214;28;20192;-59
2022/12/25 10:54:33;;;;;;;4.07;3.00;;;;;;;14.70;48.75;100095.63;5075632;28;20193;-58
2022/12/25 10:57:02;;;;;;;4.73;3.60;;;;;;;14.70;48.70;100094.75;5075326;28;20187;-57
2022/12/25 10:59:31;;;;;;;11.83;5.23;;;;;;;14.76;48.70;100087.94;5074650;28;20224;-58
2022/12/25 11:02:12;;;;;;;10.33;6.53;;;;;;;14.85;48.43;100084.56;5074362;28;20199;-59
2022/12/25 11:04:39;;;;;;;8.40;4.93;;;;;;;14.85;48.11;100086.28;5075031;28;20189;-58
2022/12/25 11:07:15;;;;;;;4.07;3.50;;;;;;;14.89;48.60;100070.78;5074694;28;20210;-58
2022/12/25 11:09:49;;;;;;;4.63;3.37;;;;;;;14.88;48.69;100074.25;5074788;28;20637;-58
2022/12/25 11:12:19;;;;;;;4.77;3.53;;;;;;;15.00;47.25;100083.81;5073181;28;20240;-58
2022/12/25 11:14:54;;;;;;;3.40;1.93;;;;;;;14.96;45.00;100088.13;5065409;28;20373;-59
2022/12/25 11:17:24;;;;;;;2.43;1.90;;;;;;;15.00;45.03;100088.97;5053405;28;20199;-59
2022/12/25 11:19:55;;;;;;;2.57;1.90;;;;;;;14.98;43.64;100081.22;5063287;28;20302;-58
2022/12/25 11:22:23;;;;;;;2.17;1.93;;;;;;;15.05;44.03;100085.56;5071858;28;20189;-59
2022/12/25 11:24:50;;;;;;;2.38;2.05;;;;;;;15.07;44.03;100094.25;5071312;28;20444;-58
2022/12/25 11:27:35;;;;;;;2.93;1.67;;;;;;;15.04;44.19;100095.94;5071515;28;20663;-58
2022/12/25 11:30:04;;;;;;;2.23;1.60;;;;;;;15.15;44.05;100100.34;5067068;28;20247;-57
2022/12/25 11:32:33;;;;;;;3.57;1.43;;;;;;;15.07;43.05;100083.88;5071921;28;20191;-57
2022/12/25 11:35:02;;;;;;;2.07;1.50;;;;;;;15.11;43.63;100085.63;5069335;28;20590;-58
2022/12/25 11:37:38;;;;;;;3.20;2.50;;;;;;;15.11;44.15;100083.03;5072930;28;20198;-58
2022/12/25 11:40:07;;;;;;;3.70;2.60;;;;;;;15.22;43.60;100081.41;5072590;28;20635;-58
2022/12/25 11:42:37;;;;;;;4.67;3.20;;;;;;;15.23;43.57;100095.22;5070522;28;20200;-58
2022/12/25 11:45:10;;;;;;;2.60;2.13;;;;;;;15.26;43.82;100090.06;5070749;28;20195;-59
2022/12/25 11:47:42;;;;;;;2.50;1.90;;;;;;;15.03;44.11;100057.94;5072480;28;20189;-58
2022/12/25 11:50:27;;;;;;;1.60;1.50;;;;;;;15.15;43.27;100065.81;5068617;28;20197;-59
2022/12/25 11:53:00;;;;;;;5.97;2.50;;;;;;;15.31;43.59;100072.81;5070164;28;20680;-58
2022/12/25 11:55:35;;;;;;;3.00;2.20;;;;;;;15.36;43.62;100076.31;5071018;28;20209;-57
2022/12/25 11:58:06;;;;;;;3.67;2.37;;;;;;;15.32;43.66;100082.34;5068485;28;20198;-57
2022/12/25 12:00:35;;;;;;;2.95;2.65;;;;;;;15.34;43.60;100078.03;5072534;28;20468;-57
2022/12/25 12:03:06;;;;;;;3.93;2.63;;;;;;;15.43;43.62;100074.63;5073350;28;20198;-58
2022/12/25 12:05:38;;;;;;;4.67;3.77;;;;;;;15.38;43.82;100053.03;5074703;28;20198;-58
2022/12/25 12:08:09;;;;;;;2.47;2.17;;;;;;;15.48;43.72;100076.41;5072825;28;20441;-58
2022/12/25 12:10:46;;;;;;;2.67;2.40;;;;;;;15.62;43.21;100071.31;5073808;28;20376;-58
2022/12/25 12:13:37;;;;;;;2.00;1.80;;;;;;;15.57;42.85;100070.44;5073814;28;20188;-58
2022/12/25 12:16:06;;;;;;;1.60;1.43;;;;;;;15.53;42.42;100074.72;5070308;28;20195;-58
2022/12/25 12:18:33;;;;;;;3.30;1.95;;;;;;;15.46;42.51;100070.38;5072907;28;20444;-58
2022/12/25 12:21:04;;;;;;;2.70;1.83;;;;;;;15.48;42.48;100083.31;5073651;28;20685;-57
2022/12/25 12:23:36;;;;;;;2.83;2.10;;;;;;;15.45;42.84;100083.25;5073802;28;20189;-58
2022/12/25 12:26:04;;;;;;;2.37;2.13;;;;;;;15.42;42.94;100078.94;5072518;28;20199;-58
2022/12/25 12:28:45;;;;;;;1.70;1.60;;;;;;;15.40;42.39;100072.03;5073772;28;20646;-58
2022/12/25 12:31:13;;;;;;;3.80;2.30;;;;;;;15.39;42.78;100078.91;5073995;28;20192;-57
2022/12/25 12:33:43;;;;;;;2.77;2.20;;;;;;;15.41;42.99;100076.34;5070509;28;20581;-58
2022/12/25 12:36:13;;;;;;;4.00;2.40;;;;;;;15.38;43.30;100080.63;5064397;28;20628;-58
2022/12/25 12:38:44;;;;;;;3.33;1.93;;;;;;;15.44;42.56;100087.56;5070362;28;20209;-57
2022/12/25 12:41:14;;;;;;;3.67;1.60;;;;;;;15.37;42.89;100083.22;5071722;28;20223;-57
2022/12/25 12:43:44;;;;;;;2.60;1.90;;;;;;;15.46;42.43;100085.00;5070875;28;20193;-57
2022/12/25 12:46:17;;;;;;;2.30;1.80;;;;;;;15.44;42.84;100086.72;5071990;28;20673;-57
2022/12/25 12:48:46;;;;;;;2.60;2.17;;;;;;;15.32;42.95;100100.47;5070716;28;20276;-57
2022/12/25 12:51:26;;;;;;;2.80;1.50;;;;;;;15.40;42.59;100095.31;5071041;28;20253;-57
2022/12/25 12:54:06;;;;;;;2.97;1.90;;;;;;;15.38;42.82;100097.03;5068890;28;20245;-58
2022/12/25 12:56:33;;;;;;;2.00;1.73;;;;;;;15.33;43.00;100097.00;5070149;28;20187;-58
2022/12/25 12:59:00;;;;;;;2.03;1.83;;;;;;;15.35;43.50;100098.72;5070755;28;20210;-58
2022/12/25 13:01:42;;;;;;;3.37;2.13;;;;;;;15.39;43.63;100099.63;5070894;28;20234;-58
2022/12/25 13:04:49;;;;;;;1.77;1.50;;;;;;;15.36;44.00;100102.19;5071086;28;20184;-58
2022/12/25 13:07:31;;;;;;;1.97;1.77;;;;;;;15.24;43.93;100071.06;5051470;28;20187;-58
2022/12/25 13:10:13;;;;;;;3.17;2.10;;;;;;;15.40;43.68;100106.56;5072510;28;20282;-58
2022/12/25 13:12:40;;;;;;;2.40;2.10;;;;;;;15.33;43.56;100117.72;5073084;28;20187;-57
2022/12/25 13:15:13;;;;;;;3.13;2.60;;;;;;;15.39;43.29;100112.56;5072694;28;20231;-58
2022/12/25 13:17:45;;;;;;;3.15;2.55;;;;;;;15.44;43.23;100116.06;5071358;28;20514;-57
2022/12/25 13:20:20;;;;;;;3.33;2.60;;;;;;;15.35;43.46;100103.91;5072782;28;20432;-57
2022/12/25 13:22:47;;;;;;;6.00;3.67;;;;;;;15.46;43.58;100113.50;5072345;28;20197;-57